sensor_id;sensor_type;location;lat;lon;timestamp;pressure;altitude;pressure_sealevel;temperature;humidity
2178;BME280;1095;50.992;6.798;2022-11-20T00:00:18;100518.16;;;2.81;93.71
2178;BME280;1095;50.992;6.798;2022-11-20T00:02:45;100519.09;;;2.80;93.48
2178;BME280;1095;50.992;6.798;2022-11-20T00:05:11;100507.34;;;2.87;93.27
2178;BME280;1095;50.992;6.798;2022-11-20T00:07:38;100510.66;;;2.89;92.64
2178;BME280;1095;50.992;6.798;2022-11-20T00:10:05;100510.88;;;2.86;92.38
2178;BME280;1095;50.992;6.798;2022-11-20T00:12:33;100502.09;;;2.88;92.74
2178;BME280;1095;50.992;6.798;2022-11-20T00:15:00;100519.09;;;2.80;93.05
2178;BME280;1095;50.992;6.798;2022-11-20T00:17:27;100513.44;;;2.75;92.84
2178;BME280;1095;50.992;6.798;2022-11-20T00:19:54;100518.47;;;2.76;93.48
2178;BME280;1095;50.992;6.798;2022-11-20T00:22:20;100525.22;;;2.90;93.34
2178;BME280;1095;50.992;6.798;2022-11-20T00:24:47;100518.16;;;2.81;93.48
2178;BME280;1095;50.992;6.798;2022-11-20T00:27:14;100515.91;;;2.76;92.82
2178;BME280;1095;50.992;6.798;2022-11-20T00:29:42;100507.00;;;2.80;93.13
2178;BME280;1095;50.992;6.798;2022-11-20T00:32:11;100509.31;;;2.72;92.77
2178;BME280;1095;50.992;6.798;2022-11-20T00:34:37;100511.44;;;2.78;93.38
2178;BME280;1095;50.992;6.798;2022-11-20T00:37:04;100510.22;;;2.71;92.91
2178;BME280;1095;50.992;6.798;2022-11-20T00:39:31;100509.72;;;2.66;93.53
2178;BME280;1095;50.992;6.798;2022-11-20T00:41:59;100502.09;;;2.64;93.87
2178;BME280;1095;50.992;6.798;2022-11-20T00:44:26;100500.84;;;2.70;93.84
2178;BME280;1095;50.992;6.798;2022-11-20T00:46:54;100508.16;;;2.76;93.36
2178;BME280;1095;50.992;6.798;2022-11-20T00:49:21;100509.91;;;2.76;93.13
2178;BME280;1095;50.992;6.798;2022-11-20T00:51:48;100514.97;;;2.77;93.01
2178;BME280;1095;50.992;6.798;2022-11-20T00:54:14;100517.88;;;2.73;93.15
2178;BME280;1095;50.992;6.798;2022-11-20T00:56:41;100507.03;;;2.67;93.43
2178;BME280;1095;50.992;6.798;2022-11-20T00:59:09;100510.22;;;2.71;93.89
2178;BME280;1095;50.992;6.798;2022-11-20T01:01:36;100500.72;;;2.72;93.17
2178;BME280;1095;50.992;6.798;2022-11-20T01:04:05;100508.59;;;2.70;93.13
2178;BME280;1095;50.992;6.798;2022-11-20T01:06:33;100511.16;;;2.70;92.99
2178;BME280;1095;50.992;6.798;2022-11-20T01:09:02;100503.63;;;2.67;93.06
2178;BME280;1095;50.992;6.798;2022-11-20T01:11:32;100510.44;;;2.68;93.08
2178;BME280;1095;50.992;6.798;2022-11-20T01:14:00;100504.56;;;2.66;92.96
2178;BME280;1095;50.992;6.798;2022-11-20T01:16:29;100508.38;;;2.73;93.43
2178;BME280;1095;50.992;6.798;2022-11-20T01:18:57;100506.81;;;2.71;93.15
2178;BME280;1095;50.992;6.798;2022-11-20T01:21:27;100500.72;;;2.72;92.97
2178;BME280;1095;50.992;6.798;2022-11-20T01:23:54;100498.03;;;2.73;92.28
2178;BME280;1095;50.992;6.798;2022-11-20T01:26:23;100495.66;;;2.70;93.10
2178;BME280;1095;50.992;6.798;2022-11-20T01:28:51;100500.19;;;2.79;92.56
2178;BME280;1095;50.992;6.798;2022-11-20T01:31:19;100506.53;;;2.86;92.37
2178;BME280;1095;50.992;6.798;2022-11-20T01:33:49;100492.56;;;2.65;93.13
2178;BME280;1095;50.992;6.798;2022-11-20T01:36:16;100487.53;;;2.63;93.46
2178;BME280;1095;50.992;6.798;2022-11-20T01:38:45;100499.63;;;2.63;93.33
2178;BME280;1095;50.992;6.798;2022-11-20T01:41:13;100482.56;;;2.60;92.84
2178;BME280;1095;50.992;6.798;2022-11-20T01:44:02;100483.50;;;2.59;93.28
2178;BME280;1095;50.992;6.798;2022-11-20T01:46:28;100486.69;;;2.63;93.24
2178;BME280;1095;50.992;6.798;2022-11-20T01:48:58;100483.19;;;2.64;93.18
2178;BME280;1095;50.992;6.798;2022-11-20T01:51:30;100477.56;;;2.70;94.00
2178;BME280;1095;50.992;6.798;2022-11-20T01:54:02;100473.22;;;2.71;93.41
2178;BME280;1095;50.992;6.798;2022-11-20T01:56:33;100469.00;;;2.70;92.87
2178;BME280;1095;50.992;6.798;2022-11-20T01:59:04;100462.78;;;2.72;93.00
2178;BME280;1095;50.992;6.798;2022-11-20T02:01:32;100456.91;;;2.70;93.10
2178;BME280;1095;50.992;6.798;2022-11-20T02:03:59;100458.88;;;2.66;92.78
2178;BME280;1095;50.992;6.798;2022-11-20T02:06:29;100467.03;;;2.73;92.44
2178;BME280;1095;50.992;6.798;2022-11-20T02:08:57;100462.91;;;2.71;92.75
2178;BME280;1095;50.992;6.798;2022-11-20T02:11:26;100466.03;;;2.63;92.84
2178;BME280;1095;50.992;6.798;2022-11-20T02:13:53;100467.69;;;2.64;93.23
2178;BME280;1095;50.992;6.798;2022-11-20T02:16:22;100465.19;;;2.62;93.82
2178;BME280;1095;50.992;6.798;2022-11-20T02:18:50;100466.63;;;2.66;93.15
2178;BME280;1095;50.992;6.798;2022-11-20T02:21:24;100456.91;;;2.70;93.78
2178;BME280;1095;50.992;6.798;2022-11-20T02:24:01;100467.03;;;2.73;93.70
2178;BME280;1095;50.992;6.798;2022-11-20T02:26:30;100471.25;;;2.74;94.34
2178;BME280;1095;50.992;6.798;2022-11-20T02:28:58;100462.06;;;2.70;94.00
2178;BME280;1095;50.992;6.798;2022-11-20T02:31:26;100459.00;;;2.65;93.83
2178;BME280;1095;50.992;6.798;2022-11-20T02:33:56;100448.88;;;2.62;93.91
2178;BME280;1095;50.992;6.798;2022-11-20T02:36:24;100449.47;;;2.65;93.86
2178;BME280;1095;50.992;6.798;2022-11-20T02:38:52;100455.19;;;2.58;93.64
2178;BME280;1095;50.992;6.798;2022-11-20T02:41:20;100455.91;;;2.60;93.97
2178;BME280;1095;50.992;6.798;2022-11-20T02:43:47;100438.03;;;2.57;94.43
2178;BME280;1095;50.992;6.798;2022-11-20T02:46:14;100446.19;;;2.63;94.79
2178;BME280;1095;50.992;6.798;2022-11-20T02:48:41;100453.13;;;2.63;94.07
2178;BME280;1095;50.992;6.798;2022-11-20T02:51:07;100457.63;;;2.72;94.06
2178;BME280;1095;50.992;6.798;2022-11-20T02:53:34;100451.19;;;2.78;94.92
2178;BME280;1095;50.992;6.798;2022-11-20T02:56:00;100459.06;;;2.76;94.43
2178;BME280;1095;50.992;6.798;2022-11-20T02:58:28;100457.91;;;2.80;94.65
2178;BME280;1095;50.992;6.798;2022-11-20T03:00:55;100458.38;;;2.85;94.99
2178;BME280;1095;50.992;6.798;2022-11-20T03:03:21;100445.13;;;2.90;95.33
2178;BME280;1095;50.992;6.798;2022-11-20T03:05:48;100454.75;;;2.88;96.27
2178;BME280;1095;50.992;6.798;2022-11-20T03:08:15;100446.06;;;2.89;95.66
2178;BME280;1095;50.992;6.798;2022-11-20T03:10:41;100444.91;;;2.93;96.09
2178;BME280;1095;50.992;6.798;2022-11-20T03:13:08;100453.59;;;2.92;95.92
2178;BME280;1095;50.992;6.798;2022-11-20T03:15:37;100444.28;;;2.89;96.39
2178;BME280;1095;50.992;6.798;2022-11-20T03:18:04;100450.41;;;2.88;96.24
2178;BME280;1095;50.992;6.798;2022-11-20T03:20:32;100443.13;;;2.93;96.58
2178;BME280;1095;50.992;6.798;2022-11-20T03:22:59;100449.94;;;2.94;96.55
2178;BME280;1095;50.992;6.798;2022-11-20T03:25:26;100441.59;;;2.91;96.42
2178;BME280;1095;50.992;6.798;2022-11-20T03:27:53;100437.47;;;2.88;95.94
2178;BME280;1095;50.992;6.798;2022-11-20T03:30:20;100442.75;;;2.87;96.40
2178;BME280;1095;50.992;6.798;2022-11-20T03:32:48;100442.88;;;2.85;96.35
2178;BME280;1095;50.992;6.798;2022-11-20T03:35:14;100443.34;;;2.90;97.29
2178;BME280;1095;50.992;6.798;2022-11-20T03:37:41;100441.22;;;2.84;96.68
2178;BME280;1095;50.992;6.798;2022-11-20T03:40:09;100444.97;;;2.80;96.65
2178;BME280;1095;50.992;6.798;2022-11-20T03:42:35;100440.53;;;2.82;96.22
2178;BME280;1095;50.992;6.798;2022-11-20T03:45:11;100435.47;;;2.81;96.66
2178;BME280;1095;50.992;6.798;2022-11-20T03:47:38;100430.03;;;2.73;96.46
2178;BME280;1095;50.992;6.798;2022-11-20T03:50:07;100427.13;;;2.77;95.90
2178;BME280;1095;50.992;6.798;2022-11-20T03:52:33;100422.38;;;2.71;96.61
2178;BME280;1095;50.992;6.798;2022-11-20T03:55:00;100429.16;;;2.61;96.21
2178;BME280;1095;50.992;6.798;2022-11-20T03:57:26;100414.09;;;2.55;96.35
2178;BME280;1095;50.992;6.798;2022-11-20T03:59:53;100425.06;;;2.46;96.29
2178;BME280;1095;50.992;6.798;2022-11-20T04:02:20;100419.88;;;2.35;96.68
2178;BME280;1095;50.992;6.798;2022-11-20T04:04:46;100422.25;;;2.25;96.91
2178;BME280;1095;50.992;6.798;2022-11-20T04:07:14;100414.63;;;2.23;97.24
2178;BME280;1095;50.992;6.798;2022-11-20T04:09:41;100412.47;;;2.17;97.75
2178;BME280;1095;50.992;6.798;2022-11-20T04:12:07;100419.06;;;2.21;98.12
2178;BME280;1095;50.992;6.798;2022-11-20T04:14:34;100415.47;;;2.11;98.42
2178;BME280;1095;50.992;6.798;2022-11-20T04:17:03;100411.03;;;2.13;98.80
2178;BME280;1095;50.992;6.798;2022-11-20T04:19:29;100422.59;;;2.08;99.13
2178;BME280;1095;50.992;6.798;2022-11-20T04:21:56;100415.47;;;2.11;99.42
2178;BME280;1095;50.992;6.798;2022-11-20T04:24:24;100430.97;;;2.11;99.35
2178;BME280;1095;50.992;6.798;2022-11-20T04:26:50;100427.56;;;2.11;99.49
2178;BME280;1095;50.992;6.798;2022-11-20T04:29:17;100428.97;;;2.27;99.77
2178;BME280;1095;50.992;6.798;2022-11-20T04:31:44;100435.41;;;2.46;99.67
2178;BME280;1095;50.992;6.798;2022-11-20T04:34:11;100426.69;;;2.36;99.12
2178;BME280;1095;50.992;6.798;2022-11-20T04:36:37;100438.19;;;2.43;99.31
2178;BME280;1095;50.992;6.798;2022-11-20T04:39:05;100427.44;;;2.49;98.83
2178;BME280;1095;50.992;6.798;2022-11-20T04:41:35;100435.19;;;2.49;98.90
2178;BME280;1095;50.992;6.798;2022-11-20T04:44:03;100434.13;;;2.51;99.18
2178;BME280;1095;50.992;6.798;2022-11-20T04:46:32;100435.97;;;2.62;98.50
2178;BME280;1095;50.992;6.798;2022-11-20T04:48:59;100440.31;;;2.61;98.48
2178;BME280;1095;50.992;6.798;2022-11-20T04:51:26;100439.97;;;2.66;98.10
2178;BME280;1095;50.992;6.798;2022-11-20T04:53:53;100440.38;;;2.73;98.67
2178;BME280;1095;50.992;6.798;2022-11-20T04:56:20;100435.53;;;2.68;97.68
2178;BME280;1095;50.992;6.798;2022-11-20T04:58:48;100430.97;;;2.72;98.34
2178;BME280;1095;50.992;6.798;2022-11-20T05:01:16;100448.00;;;2.74;97.95
2178;BME280;1095;50.992;6.798;2022-11-20T05:03:45;100435.81;;;2.76;98.12
2178;BME280;1095;50.992;6.798;2022-11-20T05:06:14;100427.34;;;2.74;97.92
2178;BME280;1095;50.992;6.798;2022-11-20T05:08:41;100432.94;;;2.68;97.50
2178;BME280;1095;50.992;6.798;2022-11-20T05:11:12;100424.47;;;2.66;97.65
2178;BME280;1095;50.992;6.798;2022-11-20T05:13:40;100429.25;;;2.59;97.29
2178;BME280;1095;50.992;6.798;2022-11-20T05:16:09;100425.84;;;2.59;96.94
2178;BME280;1095;50.992;6.798;2022-11-20T05:18:37;100436.69;;;2.64;97.17
2178;BME280;1095;50.992;6.798;2022-11-20T05:21:04;100432.22;;;2.66;97.26
2178;BME280;1095;50.992;6.798;2022-11-20T05:23:32;100438.50;;;2.75;97.74
2178;BME280;1095;50.992;6.798;2022-11-20T05:25:59;100432.72;;;2.71;98.06
2178;BME280;1095;50.992;6.798;2022-11-20T05:28:27;100438.81;;;2.70;97.98
2178;BME280;1095;50.992;6.798;2022-11-20T05:30:54;100440.97;;;2.76;98.31
2178;BME280;1095;50.992;6.798;2022-11-20T05:33:22;100438.38;;;2.76;98.91
2178;BME280;1095;50.992;6.798;2022-11-20T05:35:48;100440.16;;;2.76;98.74
2178;BME280;1095;50.992;6.798;2022-11-20T05:38:15;100436.75;;;2.75;98.64
2178;BME280;1095;50.992;6.798;2022-11-20T05:40:42;100437.22;;;2.80;98.61
2178;BME280;1095;50.992;6.798;2022-11-20T05:43:08;100430.19;;;2.82;98.50
2178;BME280;1095;50.992;6.798;2022-11-20T05:45:35;100436.03;;;2.84;98.45
2178;BME280;1095;50.992;6.798;2022-11-20T05:48:02;100439.13;;;2.89;98.14
2178;BME280;1095;50.992;6.798;2022-11-20T05:50:30;100434.06;;;2.88;98.53
2178;BME280;1095;50.992;6.798;2022-11-20T05:52:57;100428.56;;;2.92;98.69
2178;BME280;1095;50.992;6.798;2022-11-20T05:55:24;100431.69;;;2.85;98.73
2178;BME280;1095;50.992;6.798;2022-11-20T05:57:52;100435.22;;;2.84;99.28
2178;BME280;1095;50.992;6.798;2022-11-20T06:00:19;100431.84;;;2.83;99.41
2178;BME280;1095;50.992;6.798;2022-11-20T06:02:45;100428.28;;;2.84;99.76
2178;BME280;1095;50.992;6.798;2022-11-20T06:05:12;100422.31;;;2.84;100.00
2178;BME280;1095;50.992;6.798;2022-11-20T06:07:40;100429.38;;;2.82;100.00
2178;BME280;1095;50.992;6.798;2022-11-20T06:10:07;100432.53;;;2.85;99.55
2178;BME280;1095;50.992;6.798;2022-11-20T06:12:34;100428.44;;;2.83;99.92
2178;BME280;1095;50.992;6.798;2022-11-20T06:15:01;100424.31;;;2.80;100.00
2178;BME280;1095;50.992;6.798;2022-11-20T06:17:27;100430.53;;;2.78;100.00
2178;BME280;1095;50.992;6.798;2022-11-20T06:19:54;100421.44;;;2.72;100.00
2178;BME280;1095;50.992;6.798;2022-11-20T06:22:20;100417.00;;;2.74;100.00
2178;BME280;1095;50.992;6.798;2022-11-20T06:24:48;100421.22;;;2.75;100.00
2178;BME280;1095;50.992;6.798;2022-11-20T06:27:15;100416.19;;;2.74;100.00
2178;BME280;1095;50.992;6.798;2022-11-20T06:29:42;100423.44;;;2.69;100.00
2178;BME280;1095;50.992;6.798;2022-11-20T06:32:08;100423.53;;;2.67;100.00
2178;BME280;1095;50.992;6.798;2022-11-20T06:34:49;100416.13;;;2.62;100.00
2178;BME280;1095;50.992;6.798;2022-11-20T06:37:15;100426.94;;;2.67;100.00
2178;BME280;1095;50.992;6.798;2022-11-20T06:39:42;100421.50;;;2.59;100.00
2178;BME280;1095;50.992;6.798;2022-11-20T06:42:10;100434.25;;;2.50;100.00
2178;BME280;1095;50.992;6.798;2022-11-20T06:44:37;100418.22;;;2.33;100.00
2178;BME280;1095;50.992;6.798;2022-11-20T06:47:04;100423.38;;;2.33;100.00
2178;BME280;1095;50.992;6.798;2022-11-20T06:49:30;100433.03;;;2.43;100.00
2178;BME280;1095;50.992;6.798;2022-11-20T06:51:59;100433.31;;;2.51;100.00
2178;BME280;1095;50.992;6.798;2022-11-20T06:54:28;100436.72;;;2.51;100.00
2178;BME280;1095;50.992;6.798;2022-11-20T06:56:55;100439.19;;;2.53;100.00
2178;BME280;1095;50.992;6.798;2022-11-20T06:59:23;100415.63;;;2.33;100.00
2178;BME280;1095;50.992;6.798;2022-11-20T07:01:50;100439.63;;;2.47;100.00
2178;BME280;1095;50.992;6.798;2022-11-20T07:04:17;100444.91;;;2.45;100.00
2178;BME280;1095;50.992;6.798;2022-11-20T07:06:43;100457.28;;;2.53;100.00
2178;BME280;1095;50.992;6.798;2022-11-20T07:09:10;100454.25;;;2.59;100.00
2178;BME280;1095;50.992;6.798;2022-11-20T07:11:37;100455.69;;;2.63;100.00
2178;BME280;1095;50.992;6.798;2022-11-20T07:14:04;100456.91;;;2.70;100.00
2178;BME280;1095;50.992;6.798;2022-11-20T07:16:32;100459.38;;;2.72;100.00
2178;BME280;1095;50.992;6.798;2022-11-20T07:18:58;100460.94;;;2.74;100.00
2178;BME280;1095;50.992;6.798;2022-11-20T07:21:25;100469.19;;;2.79;100.00
2178;BME280;1095;50.992;6.798;2022-11-20T07:23:52;100467.78;;;2.86;100.00
2178;BME280;1095;50.992;6.798;2022-11-20T07:26:20;100467.88;;;2.85;100.00
2178;BME280;1095;50.992;6.798;2022-11-20T07:28:46;100466.47;;;2.81;100.00
2178;BME280;1095;50.992;6.798;2022-11-20T07:31:13;100476.25;;;2.88;100.00
2178;BME280;1095;50.992;6.798;2022-11-20T07:33:45;100469.31;;;2.89;100.00
2178;BME280;1095;50.992;6.798;2022-11-20T07:36:20;100480.16;;;2.94;100.00
2178;BME280;1095;50.992;6.798;2022-11-20T07:38:53;100476.28;;;2.99;100.00
2178;BME280;1095;50.992;6.798;2022-11-20T07:41:25;100444.75;;;2.83;100.00
2178;BME280;1095;50.992;6.798;2022-11-20T07:44:02;100460.06;;;2.97;100.00
2178;BME280;1095;50.992;6.798;2022-11-20T07:46:31;100460.69;;;3.01;100.00
2178;BME280;1095;50.992;6.798;2022-11-20T07:49:14;100468.81;;;3.08;100.00
2178;BME280;1095;50.992;6.798;2022-11-20T07:51:42;100460.69;;;3.01;100.00
2178;BME280;1095;50.992;6.798;2022-11-20T07:54:09;100469.75;;;3.07;100.00
2178;BME280;1095;50.992;6.798;2022-11-20T07:56:35;100466.00;;;3.11;100.00
2178;BME280;1095;50.992;6.798;2022-11-20T07:59:03;100460.84;;;3.11;100.00
2178;BME280;1095;50.992;6.798;2022-11-20T08:01:29;100464.63;;;3.18;100.00
2178;BME280;1095;50.992;6.798;2022-11-20T08:04:11;100460.28;;;3.18;100.00
2178;BME280;1095;50.992;6.798;2022-11-20T08:06:46;100462.41;;;3.24;100.00
2178;BME280;1095;50.992;6.798;2022-11-20T08:09:13;100458.88;;;3.25;100.00
2178;BME280;1095;50.992;6.798;2022-11-20T08:11:40;100454.31;;;3.29;100.00
2178;BME280;1095;50.992;6.798;2022-11-20T08:14:24;100456.66;;;3.32;100.00
2178;BME280;1095;50.992;6.798;2022-11-20T08:16:52;100457.13;;;3.37;99.91
2178;BME280;1095;50.992;6.798;2022-11-20T08:19:19;100458.56;;;3.41;100.00
2178;BME280;1095;50.992;6.798;2022-11-20T08:21:47;100451.38;;;3.45;99.99
2178;BME280;1095;50.992;6.798;2022-11-20T08:24:13;100460.22;;;3.53;99.29
2178;BME280;1095;50.992;6.798;2022-11-20T08:26:40;100465.28;;;3.55;98.96
2178;BME280;1095;50.992;6.798;2022-11-20T08:29:07;100464.72;;;3.62;99.05
2178;BME280;1095;50.992;6.798;2022-11-20T08:31:34;100461.31;;;3.73;98.99
2178;BME280;1095;50.992;6.798;2022-11-20T08:34:00;100455.31;;;3.84;99.13
2178;BME280;1095;50.992;6.798;2022-11-20T08:36:27;100465.78;;;3.93;98.77
2178;BME280;1095;50.992;6.798;2022-11-20T08:38:55;100455.31;;;3.84;97.38
2178;BME280;1095;50.992;6.798;2022-11-20T08:41:22;100466.63;;;3.94;97.21
2178;BME280;1095;50.992;6.798;2022-11-20T08:43:54;100458.59;;;3.86;96.04
2178;BME280;1095;50.992;6.798;2022-11-20T08:46:21;100463.09;;;3.95;94.87
2178;BME280;1095;50.992;6.798;2022-11-20T08:48:47;100455.78;;;4.00;94.49
2178;BME280;1095;50.992;6.798;2022-11-20T08:51:14;100459.78;;;4.04;93.89
2178;BME280;1095;50.992;6.798;2022-11-20T08:53:42;100454.84;;;4.12;93.26
2178;BME280;1095;50.992;6.798;2022-11-20T08:56:10;100463.44;;;4.24;92.76
2178;BME280;1095;50.992;6.798;2022-11-20T08:58:37;100455.53;;;4.25;93.13
2178;BME280;1095;50.992;6.798;2022-11-20T09:01:03;100464.25;;;4.24;92.96
2178;BME280;1095;50.992;6.798;2022-11-20T09:03:30;100468.13;;;4.30;93.62
2178;BME280;1095;50.992;6.798;2022-11-20T09:05:58;100459.66;;;3.94;93.09
2178;BME280;1095;50.992;6.798;2022-11-20T09:08:25;100457.81;;;3.74;92.51
2178;BME280;1095;50.992;6.798;2022-11-20T09:10:52;100462.13;;;3.62;93.32
2178;BME280;1095;50.992;6.798;2022-11-20T09:13:21;100457.06;;;3.83;93.55
2178;BME280;1095;50.992;6.798;2022-11-20T09:15:52;100447.88;;;3.79;92.90
2178;BME280;1095;50.992;6.798;2022-11-20T09:18:19;100436.72;;;3.79;92.86
2178;BME280;1095;50.992;6.798;2022-11-20T09:20:46;100430.38;;;3.83;93.24
2178;BME280;1095;50.992;6.798;2022-11-20T09:23:12;100433.19;;;4.02;93.17
2178;BME280;1095;50.992;6.798;2022-11-20T09:25:39;100428.25;;;3.99;92.67
2178;BME280;1095;50.992;6.798;2022-11-20T09:28:06;100424.00;;;3.98;92.95
2178;BME280;1095;50.992;6.798;2022-11-20T09:30:34;100429.06;;;4.22;92.36
2178;BME280;1095;50.992;6.798;2022-11-20T09:33:00;100422.56;;;4.27;92.22
2178;BME280;1095;50.992;6.798;2022-11-20T09:35:27;100433.63;;;4.73;91.88
2178;BME280;1095;50.992;6.798;2022-11-20T09:37:54;100427.75;;;4.71;91.65
2178;BME280;1095;50.992;6.798;2022-11-20T09:40:22;100429.25;;;4.73;91.48
2178;BME280;1095;50.992;6.798;2022-11-20T09:42:54;100429.78;;;4.67;91.52
2178;BME280;1095;50.992;6.798;2022-11-20T09:45:30;100427.31;;;4.11;92.87
2178;BME280;1095;50.992;6.798;2022-11-20T09:48:13;100429.44;;;4.06;93.53
2178;BME280;1095;50.992;6.798;2022-11-20T09:50:46;100419.06;;;4.17;93.78
2178;BME280;1095;50.992;6.798;2022-11-20T09:53:18;100421.44;;;4.09;94.55
2178;BME280;1095;50.992;6.798;2022-11-20T09:55:47;100420.91;;;4.26;93.90
2178;BME280;1095;50.992;6.798;2022-11-20T09:58:23;100426.28;;;4.46;93.59
2178;BME280;1095;50.992;6.798;2022-11-20T10:00:51;100433.84;;;4.38;93.57
2178;BME280;1095;50.992;6.798;2022-11-20T10:03:33;100431.22;;;4.60;93.41
2178;BME280;1095;50.992;6.798;2022-11-20T10:06:03;100426.09;;;4.26;93.41
2178;BME280;1095;50.992;6.798;2022-11-20T10:08:37;100422.56;;;4.27;93.37
2178;BME280;1095;50.992;6.798;2022-11-20T10:11:12;100424.25;;;4.60;94.18
2178;BME280;1095;50.992;6.798;2022-11-20T10:13:48;100438.19;;;4.80;94.61
2178;BME280;1095;50.992;6.798;2022-11-20T10:16:28;100435.59;;;4.80;93.45
2178;BME280;1095;50.992;6.798;2022-11-20T10:19:10;100423.25;;;4.73;93.47
2178;BME280;1095;50.992;6.798;2022-11-20T10:21:57;100414.16;;;4.78;94.01
2178;BME280;1095;50.992;6.798;2022-11-20T10:24:51;100407.53;;;4.85;94.08
2178;BME280;1095;50.992;6.798;2022-11-20T10:27:37;100402.94;;;4.89;93.96
2178;BME280;1095;50.992;6.798;2022-11-20T10:30:08;100387.19;;;5.02;93.30
2178;BME280;1095;50.992;6.798;2022-11-20T10:32:38;100369.84;;;4.60;93.17
2178;BME280;1095;50.992;6.798;2022-11-20T10:35:14;100379.22;;;4.93;93.44
2178;BME280;1095;50.992;6.798;2022-11-20T10:37:44;100379.34;;;5.13;92.32
2178;BME280;1095;50.992;6.798;2022-11-20T10:40:22;100369.56;;;5.26;91.69
2178;BME280;1095;50.992;6.798;2022-11-20T10:42:52;100370.63;;;5.14;91.09
2178;BME280;1095;50.992;6.798;2022-11-20T10:45:32;100360.09;;;4.74;91.52
2178;BME280;1095;50.992;6.798;2022-11-20T10:48:10;100368.53;;;4.66;92.48
2178;BME280;1095;50.992;6.798;2022-11-20T10:50:49;100355.38;;;4.47;92.46
2178;BME280;1095;50.992;6.798;2022-11-20T10:53:27;100341.03;;;4.43;93.20
2178;BME280;1095;50.992;6.798;2022-11-20T10:56:02;100351.78;;;4.70;93.19
2178;BME280;1095;50.992;6.798;2022-11-20T10:58:36;100339.38;;;4.94;93.23
2178;BME280;1095;50.992;6.798;2022-11-20T11:01:04;100340.06;;;4.96;92.58
2178;BME280;1095;50.992;6.798;2022-11-20T11:03:32;100328.16;;;4.73;92.52
2178;BME280;1095;50.992;6.798;2022-11-20T11:06:07;100332.78;;;4.90;92.68
2178;BME280;1095;50.992;6.798;2022-11-20T11:08:39;100335.78;;;5.07;93.40
2178;BME280;1095;50.992;6.798;2022-11-20T11:11:18;100325.22;;;4.98;93.10
2178;BME280;1095;50.992;6.798;2022-11-20T11:13:47;100322.50;;;4.58;93.46
2178;BME280;1095;50.992;6.798;2022-11-20T11:16:21;100316.69;;;4.66;93.87
2178;BME280;1095;50.992;6.798;2022-11-20T11:18:48;100315.63;;;4.69;93.79
2178;BME280;1095;50.992;6.798;2022-11-20T11:21:22;100316.50;;;4.58;93.86
2178;BME280;1095;50.992;6.798;2022-11-20T11:23:58;100312.94;;;4.59;93.70
2178;BME280;1095;50.992;6.798;2022-11-20T11:26:26;100311.78;;;4.73;94.52
2178;BME280;1095;50.992;6.798;2022-11-20T11:28:54;100316.91;;;4.84;94.78
2178;BME280;1095;50.992;6.798;2022-11-20T11:31:25;100300.03;;;4.89;94.24
2178;BME280;1095;50.992;6.798;2022-11-20T11:34:03;100304.72;;;4.75;94.26
2178;BME280;1095;50.992;6.798;2022-11-20T11:36:33;100297.31;;;4.49;94.22
2178;BME280;1095;50.992;6.798;2022-11-20T11:39:03;100289.56;;;4.49;94.98
2178;BME280;1095;50.992;6.798;2022-11-20T11:41:32;100282.66;;;4.39;95.35
2178;BME280;1095;50.992;6.798;2022-11-20T11:44:15;100276.06;;;4.34;95.59
2178;BME280;1095;50.992;6.798;2022-11-20T11:47:00;100272.28;;;4.39;96.12
2178;BME280;1095;50.992;6.798;2022-11-20T11:49:27;100274.31;;;4.35;96.22
2178;BME280;1095;50.992;6.798;2022-11-20T11:52:04;100273.88;;;4.51;97.02
2178;BME280;1095;50.992;6.798;2022-11-20T11:54:36;100273.06;;;4.50;96.97
2178;BME280;1095;50.992;6.798;2022-11-20T11:57:12;100259.66;;;4.45;96.70
2178;BME280;1095;50.992;6.798;2022-11-20T11:59:51;100257.25;;;4.53;96.59
2178;BME280;1095;50.992;6.798;2022-11-20T12:02:29;100253.72;;;4.54;96.45
2178;BME280;1095;50.992;6.798;2022-11-20T12:04:59;100252.66;;;4.57;96.35
2178;BME280;1095;50.992;6.798;2022-11-20T12:07:38;100254.53;;;4.55;95.84
2178;BME280;1095;50.992;6.798;2022-11-20T12:10:16;100236.22;;;4.47;96.14
2178;BME280;1095;50.992;6.798;2022-11-20T12:12:48;100229.47;;;4.55;96.08
2178;BME280;1095;50.992;6.798;2022-11-20T12:15:25;100232.31;;;4.52;96.42
2178;BME280;1095;50.992;6.798;2022-11-20T12:17:52;100227.00;;;4.54;96.26
2178;BME280;1095;50.992;6.798;2022-11-20T12:20:20;100223.97;;;4.49;96.06
2178;BME280;1095;50.992;6.798;2022-11-20T12:22:56;100223.97;;;4.49;96.06
2178;BME280;1095;50.992;6.798;2022-11-20T12:25:30;100217.38;;;4.45;95.92
2178;BME280;1095;50.992;6.798;2022-11-20T12:28:18;100211.69;;;4.51;95.86
2178;BME280;1095;50.992;6.798;2022-11-20T12:31:01;100223.38;;;4.66;95.91
2178;BME280;1095;50.992;6.798;2022-11-20T12:33:54;100230.81;;;4.80;96.32
2178;BME280;1095;50.992;6.798;2022-11-20T12:36:33;100212.78;;;4.69;96.27
2178;BME280;1095;50.992;6.798;2022-11-20T12:39:21;100210.50;;;4.85;95.91
2178;BME280;1095;50.992;6.798;2022-11-20T12:45:35;100205.28;;;5.06;95.70
2178;BME280;1095;50.992;6.798;2022-11-20T12:51:05;100192.63;;;5.13;94.87
2178;BME280;1095;50.992;6.798;2022-11-20T12:53:41;100164.06;;;5.03;94.58
2178;BME280;1095;50.992;6.798;2022-11-20T12:56:23;100171.28;;;4.99;94.85
2178;BME280;1095;50.992;6.798;2022-11-20T12:59:01;100174.56;;;5.02;94.71
2178;BME280;1095;50.992;6.798;2022-11-20T13:01:37;100159.81;;;5.02;94.49
2178;BME280;1095;50.992;6.798;2022-11-20T13:04:16;100165.03;;;5.12;94.00
2178;BME280;1095;50.992;6.798;2022-11-20T13:06:46;100162.94;;;4.96;94.33
2178;BME280;1095;50.992;6.798;2022-11-20T13:09:15;100150.97;;;5.05;93.98
2178;BME280;1095;50.992;6.798;2022-11-20T13:11:50;100151.94;;;5.13;94.25
2178;BME280;1095;50.992;6.798;2022-11-20T13:14:30;100153.72;;;5.22;93.98
2178;BME280;1095;50.992;6.798;2022-11-20T13:17:05;100140.75;;;5.13;94.01
2178;BME280;1095;50.992;6.798;2022-11-20T13:19:33;100138.03;;;5.14;93.98
2178;BME280;1095;50.992;6.798;2022-11-20T13:22:00;100130.91;;;5.26;93.57
2178;BME280;1095;50.992;6.798;2022-11-20T13:24:29;100117.13;;;5.16;93.93
2178;BME280;1095;50.992;6.798;2022-11-20T13:27:05;100120.28;;;5.19;93.70
2178;BME280;1095;50.992;6.798;2022-11-20T13:29:45;100118.63;;;5.09;93.67
2178;BME280;1095;50.992;6.798;2022-11-20T13:32:15;100115.06;;;5.10;93.58
2178;BME280;1095;50.992;6.798;2022-11-20T13:34:52;100118.09;;;5.15;94.40
2178;BME280;1095;50.992;6.798;2022-11-20T13:37:27;100102.66;;;5.13;94.81
2178;BME280;1095;50.992;6.798;2022-11-20T13:40:11;100104.03;;;5.17;95.19